sensor_id;sensor_type;location;lat;lon;timestamp;P1;durP1;ratioP1;P2;durP2;ratioP2
12474;SDS011;6302;42.624;23.334;2023-02-01T00:00:11;4.33;;;3.93;;
12474;SDS011;6302;42.624;23.334;2023-02-01T00:02:38;4.73;;;4.03;;
12474;SDS011;6302;42.624;23.334;2023-02-01T00:05:06;6.47;;;5.50;;
12474;SDS011;6302;42.624;23.334;2023-02-01T00:07:34;3.67;;;3.40;;
12474;SDS011;6302;42.624;23.334;2023-02-01T00:10:01;4.10;;;3.80;;
12474;SDS011;6302;42.624;23.334;2023-02-01T00:12:28;9.40;;;6.03;;
12474;SDS011;6302;42.624;23.334;2023-02-01T00:14:55;7.03;;;4.57;;
12474;SDS011;6302;42.624;23.334;2023-02-01T00:17:23;4.80;;;3.30;;
12474;SDS011;6302;42.624;23.334;2023-02-01T00:19:50;10.77;;;6.40;;
12474;SDS011;6302;42.624;23.334;2023-02-01T00:22:17;7.77;;;4.10;;
12474;SDS011;6302;42.624;23.334;2023-02-01T00:24:44;5.57;;;4.40;;
12474;SDS011;6302;42.624;23.334;2023-02-01T00:27:11;6.27;;;5.07;;
12474;SDS011;6302;42.624;23.334;2023-02-01T00:29:42;3.50;;;3.20;;
12474;SDS011;6302;42.624;23.334;2023-02-01T00:32:09;6.80;;;4.67;;
12474;SDS011;6302;42.624;23.334;2023-02-01T00:34:37;5.07;;;4.23;;
12474;SDS011;6302;42.624;23.334;2023-02-01T00:37:04;4.00;;;3.67;;
12474;SDS011;6302;42.624;23.334;2023-02-01T00:39:31;8.67;;;5.50;;
12474;SDS011;6302;42.624;23.334;2023-02-01T00:41:59;4.70;;;4.30;;
12474;SDS011;6302;42.624;23.334;2023-02-01T00:44:26;4.93;;;3.97;;
12474;SDS011;6302;42.624;23.334;2023-02-01T00:46:58;4.13;;;3.70;;
12474;SDS011;6302;42.624;23.334;2023-02-01T00:49:24;11.13;;;5.53;;
12474;SDS011;6302;42.624;23.334;2023-02-01T00:51:53;9.83;;;5.17;;
12474;SDS011;6302;42.624;23.334;2023-02-01T00:54:19;4.57;;;3.80;;
12474;SDS011;6302;42.624;23.334;2023-02-01T00:56:46;7.43;;;4.10;;
12474;SDS011;6302;42.624;23.334;2023-02-01T00:59:13;4.60;;;4.20;;
12474;SDS011;6302;42.624;23.334;2023-02-01T01:01:40;4.30;;;3.13;;
12474;SDS011;6302;42.624;23.334;2023-02-01T01:04:07;3.97;;;3.23;;
12474;SDS011;6302;42.624;23.334;2023-02-01T01:06:34;4.40;;;3.43;;
12474;SDS011;6302;42.624;23.334;2023-02-01T01:09:02;3.37;;;3.13;;
12474;SDS011;6302;42.624;23.334;2023-02-01T01:11:32;3.87;;;3.17;;
12474;SDS011;6302;42.624;23.334;2023-02-01T01:14:00;2.83;;;2.60;;
12474;SDS011;6302;42.624;23.334;2023-02-01T01:16:28;3.77;;;3.10;;
12474;SDS011;6302;42.624;23.334;2023-02-01T01:18:57;2.63;;;2.43;;
12474;SDS011;6302;42.624;23.334;2023-02-01T01:21:25;4.23;;;3.40;;
12474;SDS011;6302;42.624;23.334;2023-02-01T01:23:52;3.17;;;2.87;;
12474;SDS011;6302;42.624;23.334;2023-02-01T01:26:21;3.13;;;2.87;;
12474;SDS011;6302;42.624;23.334;2023-02-01T01:28:49;3.20;;;2.90;;
12474;SDS011;6302;42.624;23.334;2023-02-01T01:31:16;3.33;;;3.03;;
12474;SDS011;6302;42.624;23.334;2023-02-01T01:33:46;3.47;;;3.17;;
12474;SDS011;6302;42.624;23.334;2023-02-01T01:36:14;4.53;;;3.30;;
12474;SDS011;6302;42.624;23.334;2023-02-01T01:38:41;3.13;;;2.83;;
12474;SDS011;6302;42.624;23.334;2023-02-01T01:41:08;3.70;;;3.00;;
12474;SDS011;6302;42.624;23.334;2023-02-01T01:43:47;2.90;;;2.70;;
12474;SDS011;6302;42.624;23.334;2023-02-01T01:46:17;5.80;;;3.47;;
12474;SDS011;6302;42.624;23.334;2023-02-01T01:48:45;3.30;;;3.00;;
12474;SDS011;6302;42.624;23.334;2023-02-01T01:51:17;4.33;;;3.10;;
12474;SDS011;6302;42.624;23.334;2023-02-01T01:53:50;3.20;;;2.90;;
12474;SDS011;6302;42.624;23.334;2023-02-01T01:56:22;3.40;;;3.10;;
12474;SDS011;6302;42.624;23.334;2023-02-01T01:58:51;2.37;;;2.20;;
12474;SDS011;6302;42.624;23.334;2023-02-01T02:01:19;3.80;;;2.80;;
12474;SDS011;6302;42.624;23.334;2023-02-01T02:03:46;3.63;;;2.97;;
12474;SDS011;6302;42.624;23.334;2023-02-01T02:06:15;3.63;;;2.73;;
12474;SDS011;6302;42.624;23.334;2023-02-01T02:08:51;3.40;;;3.10;;
12474;SDS011;6302;42.624;23.334;2023-02-01T02:11:18;3.00;;;2.80;;
12474;SDS011;6302;42.624;23.334;2023-02-01T02:13:46;3.20;;;2.90;;
12474;SDS011;6302;42.624;23.334;2023-02-01T02:16:20;3.67;;;2.67;;
12474;SDS011;6302;42.624;23.334;2023-02-01T02:18:58;2.90;;;2.60;;
12474;SDS011;6302;42.624;23.334;2023-02-01T02:21:50;3.00;;;2.70;;
12474;SDS011;6302;42.624;23.334;2023-02-01T02:24:34;4.77;;;3.10;;
12474;SDS011;6302;42.624;23.334;2023-02-01T02:27:21;3.17;;;2.90;;
12474;SDS011;6302;42.624;23.334;2023-02-01T02:30:02;2.50;;;2.40;;
12474;SDS011;6302;42.624;23.334;2023-02-01T02:36:06;3.50;;;2.57;;
12474;SDS011;6302;42.624;23.334;2023-02-01T02:38:40;2.40;;;2.20;;
12474;SDS011;6302;42.624;23.334;2023-02-01T02:41:13;1.83;;;1.73;;
12474;SDS011;6302;42.624;23.334;2023-02-01T02:44:06;2.53;;;2.33;;
12474;SDS011;6302;42.624;23.334;2023-02-01T02:47:03;2.97;;;2.77;;
12474;SDS011;6302;42.624;23.334;2023-02-01T02:49:54;2.03;;;1.93;;
12474;SDS011;6302;42.624;23.334;2023-02-01T02:52:48;3.13;;;2.43;;
12474;SDS011;6302;42.624;23.334;2023-02-01T02:55:39;2.63;;;2.43;;
12474;SDS011;6302;42.624;23.334;2023-02-01T02:58:07;1.87;;;1.77;;
12474;SDS011;6302;42.624;23.334;2023-02-01T03:00:54;2.33;;;2.13;;
12474;SDS011;6302;42.624;23.334;2023-02-01T03:03:39;3.00;;;2.00;;
12474;SDS011;6302;42.624;23.334;2023-02-01T03:06:24;2.70;;;2.50;;
12474;SDS011;6302;42.624;23.334;2023-02-01T03:08:53;2.30;;;2.20;;
12474;SDS011;6302;42.624;23.334;2023-02-01T03:11:24;3.13;;;2.83;;
12474;SDS011;6302;42.624;23.334;2023-02-01T03:14:13;2.50;;;2.33;;
12474;SDS011;6302;42.624;23.334;2023-02-01T03:16:43;3.00;;;2.10;;
12474;SDS011;6302;42.624;23.334;2023-02-01T03:19:15;2.67;;;2.47;;
12474;SDS011;6302;42.624;23.334;2023-02-01T03:21:48;2.13;;;2.03;;
12474;SDS011;6302;42.624;23.334;2023-02-01T03:24:22;3.63;;;2.17;;
12474;SDS011;6302;42.624;23.334;2023-02-01T03:27:00;2.87;;;2.23;;
12474;SDS011;6302;42.624;23.334;2023-02-01T03:29:30;2.40;;;2.20;;
12474;SDS011;6302;42.624;23.334;2023-02-01T03:32:04;2.40;;;2.30;;
12474;SDS011;6302;42.624;23.334;2023-02-01T03:34:31;1.60;;;1.50;;
12474;SDS011;6302;42.624;23.334;2023-02-01T03:36:58;2.10;;;2.00;;
12474;SDS011;6302;42.624;23.334;2023-02-01T03:39:31;2.73;;;1.90;;
12474;SDS011;6302;42.624;23.334;2023-02-01T03:42:02;2.30;;;2.20;;
12474;SDS011;6302;42.624;23.334;2023-02-01T03:44:35;2.23;;;2.03;;
12474;SDS011;6302;42.624;23.334;2023-02-01T03:47:06;2.50;;;2.33;;
12474;SDS011;6302;42.624;23.334;2023-02-01T03:49:38;2.00;;;1.90;;
12474;SDS011;6302;42.624;23.334;2023-02-01T03:52:09;2.10;;;1.90;;
12474;SDS011;6302;42.624;23.334;2023-02-01T03:54:42;3.13;;;2.40;;
12474;SDS011;6302;42.624;23.334;2023-02-01T03:57:11;3.10;;;2.10;;
12474;SDS011;6302;42.624;23.334;2023-02-01T03:59:40;2.40;;;2.20;;
12474;SDS011;6302;42.624;23.334;2023-02-01T04:02:07;2.33;;;2.23;;
12474;SDS011;6302;42.624;23.334;2023-02-01T04:04:34;2.53;;;2.10;;
12474;SDS011;6302;42.624;23.334;2023-02-01T04:07:01;3.10;;;2.80;;
12474;SDS011;6302;42.624;23.334;2023-02-01T04:09:28;2.20;;;2.10;;
12474;SDS011;6302;42.624;23.334;2023-02-01T04:11:57;2.50;;;2.40;;
12474;SDS011;6302;42.624;23.334;2023-02-01T04:14:23;2.83;;;2.57;;
12474;SDS011;6302;42.624;23.334;2023-02-01T04:16:50;3.13;;;2.90;;
12474;SDS011;6302;42.624;23.334;2023-02-01T04:19:17;2.10;;;2.00;;
12474;SDS011;6302;42.624;23.334;2023-02-01T04:21:44;2.67;;;2.47;;
12474;SDS011;6302;42.624;23.334;2023-02-01T04:24:11;4.23;;;2.40;;
12474;SDS011;6302;42.624;23.334;2023-02-01T04:26:37;4.40;;;2.67;;
12474;SDS011;6302;42.624;23.334;2023-02-01T04:29:05;3.33;;;2.57;;
12474;SDS011;6302;42.624;23.334;2023-02-01T04:31:34;3.30;;;2.83;;
12474;SDS011;6302;42.624;23.334;2023-02-01T04:34:01;4.20;;;3.13;;
12474;SDS011;6302;42.624;23.334;2023-02-01T04:36:28;3.37;;;3.17;;
12474;SDS011;6302;42.624;23.334;2023-02-01T04:38:55;3.90;;;3.20;;
12474;SDS011;6302;42.624;23.334;2023-02-01T04:41:21;3.17;;;2.87;;
12474;SDS011;6302;42.624;23.334;2023-02-01T04:43:49;3.30;;;3.00;;
12474;SDS011;6302;42.624;23.334;2023-02-01T04:46:18;3.63;;;3.00;;
12474;SDS011;6302;42.624;23.334;2023-02-01T04:48:45;4.70;;;3.50;;
12474;SDS011;6302;42.624;23.334;2023-02-01T04:51:12;3.10;;;2.77;;
12474;SDS011;6302;42.624;23.334;2023-02-01T04:53:40;4.17;;;3.70;;
12474;SDS011;6302;42.624;23.334;2023-02-01T04:56:07;4.10;;;3.70;;
12474;SDS011;6302;42.624;23.334;2023-02-01T04:58:34;3.87;;;3.17;;
12474;SDS011;6302;42.624;23.334;2023-02-01T05:01:01;4.83;;;3.97;;
12474;SDS011;6302;42.624;23.334;2023-02-01T05:03:30;4.77;;;4.10;;
12474;SDS011;6302;42.624;23.334;2023-02-01T05:05:58;2.90;;;2.70;;
12474;SDS011;6302;42.624;23.334;2023-02-01T05:08:25;3.97;;;3.67;;
12474;SDS011;6302;42.624;23.334;2023-02-01T05:10:53;4.20;;;3.90;;
12474;SDS011;6302;42.624;23.334;2023-02-01T05:13:20;4.10;;;3.70;;
12474;SDS011;6302;42.624;23.334;2023-02-01T05:16:05;3.50;;;3.20;;
12474;SDS011;6302;42.624;23.334;2023-02-01T05:18:36;4.57;;;3.53;;
12474;SDS011;6302;42.624;23.334;2023-02-01T05:21:02;5.87;;;3.73;;
12474;SDS011;6302;42.624;23.334;2023-02-01T05:23:29;5.47;;;4.07;;
12474;SDS011;6302;42.624;23.334;2023-02-01T05:26:00;3.80;;;3.50;;
12474;SDS011;6302;42.624;23.334;2023-02-01T05:28:27;6.07;;;4.00;;
12474;SDS011;6302;42.624;23.334;2023-02-01T05:30:54;4.33;;;3.80;;
12474;SDS011;6302;42.624;23.334;2023-02-01T05:33:21;4.80;;;3.40;;
12474;SDS011;6302;42.624;23.334;2023-02-01T05:35:50;4.20;;;3.80;;
12474;SDS011;6302;42.624;23.334;2023-02-01T05:38:16;5.53;;;4.80;;
12474;SDS011;6302;42.624;23.334;2023-02-01T05:40:43;7.50;;;4.47;;
12474;SDS011;6302;42.624;23.334;2023-02-01T05:43:14;4.27;;;3.77;;
12474;SDS011;6302;42.624;23.334;2023-02-01T05:45:42;4.50;;;3.80;;
12474;SDS011;6302;42.624;23.334;2023-02-01T05:48:09;4.97;;;3.73;;
12474;SDS011;6302;42.624;23.334;2023-02-01T05:50:35;4.80;;;3.87;;
12474;SDS011;6302;42.624;23.334;2023-02-01T05:53:04;2.97;;;2.77;;
12474;SDS011;6302;42.624;23.334;2023-02-01T05:55:31;3.20;;;2.90;;
12474;SDS011;6302;42.624;23.334;2023-02-01T05:57:58;5.37;;;2.53;;
12474;SDS011;6302;42.624;23.334;2023-02-01T06:00:25;3.20;;;2.97;;
12474;SDS011;6302;42.624;23.334;2023-02-01T06:02:51;2.27;;;2.10;;
12474;SDS011;6302;42.624;23.334;2023-02-01T06:05:18;3.60;;;2.90;;
12474;SDS011;6302;42.624;23.334;2023-02-01T06:07:45;2.63;;;2.43;;
12474;SDS011;6302;42.624;23.334;2023-02-01T06:10:13;5.03;;;3.33;;
12474;SDS011;6302;42.624;23.334;2023-02-01T06:12:40;3.10;;;2.80;;
12474;SDS011;6302;42.624;23.334;2023-02-01T06:15:07;2.20;;;2.10;;
12474;SDS011;6302;42.624;23.334;2023-02-01T06:17:34;2.37;;;2.17;;
12474;SDS011;6302;42.624;23.334;2023-02-01T06:20:02;3.17;;;2.50;;
12474;SDS011;6302;42.624;23.334;2023-02-01T06:22:31;3.03;;;2.70;;
12474;SDS011;6302;42.624;23.334;2023-02-01T06:24:58;5.40;;;2.67;;
12474;SDS011;6302;42.624;23.334;2023-02-01T06:27:26;3.20;;;2.90;;
12474;SDS011;6302;42.624;23.334;2023-02-01T06:29:53;4.30;;;3.10;;
12474;SDS011;6302;42.624;23.334;2023-02-01T06:32:20;3.93;;;2.93;;
12474;SDS011;6302;42.624;23.334;2023-02-01T06:34:48;5.07;;;2.87;;
12474;SDS011;6302;42.624;23.334;2023-02-01T06:37:14;2.93;;;2.70;;
12474;SDS011;6302;42.624;23.334;2023-02-01T06:39:41;4.60;;;2.63;;
12474;SDS011;6302;42.624;23.334;2023-02-01T06:42:08;2.57;;;2.37;;
12474;SDS011;6302;42.624;23.334;2023-02-01T06:44:36;3.80;;;2.30;;
12474;SDS011;6302;42.624;23.334;2023-02-01T06:47:03;2.90;;;2.57;;
12474;SDS011;6302;42.624;23.334;2023-02-01T06:49:30;3.93;;;3.00;;
12474;SDS011;6302;42.624;23.334;2023-02-01T06:51:57;2.87;;;2.30;;
12474;SDS011;6302;42.624;23.334;2023-02-01T06:54:25;4.33;;;2.57;;
12474;SDS011;6302;42.624;23.334;2023-02-01T06:56:52;2.97;;;2.73;;
12474;SDS011;6302;42.624;23.334;2023-02-01T06:59:18;5.77;;;3.10;;
12474;SDS011;6302;42.624;23.334;2023-02-01T07:01:47;2.87;;;2.57;;
12474;SDS011;6302;42.624;23.334;2023-02-01T07:04:14;3.17;;;2.57;;
12474;SDS011;6302;42.624;23.334;2023-02-01T07:06:40;2.17;;;1.97;;
12474;SDS011;6302;42.624;23.334;2023-02-01T07:09:07;2.83;;;2.57;;
12474;SDS011;6302;42.624;23.334;2023-02-01T07:11:34;4.33;;;2.40;;
12474;SDS011;6302;42.624;23.334;2023-02-01T07:14:02;2.87;;;2.67;;
12474;SDS011;6302;42.624;23.334;2023-02-01T07:16:29;3.27;;;2.83;;
12474;SDS011;6302;42.624;23.334;2023-02-01T07:18:57;3.27;;;2.97;;
12474;SDS011;6302;42.624;23.334;2023-02-01T07:21:24;4.23;;;2.77;;
12474;SDS011;6302;42.624;23.334;2023-02-01T07:23:52;2.23;;;2.03;;
12474;SDS011;6302;42.624;23.334;2023-02-01T07:26:20;3.33;;;2.90;;
12474;SDS011;6302;42.624;23.334;2023-02-01T07:28:47;3.20;;;2.23;;
12474;SDS011;6302;42.624;23.334;2023-02-01T07:31:14;4.00;;;3.00;;
12474;SDS011;6302;42.624;23.334;2023-02-01T07:33:43;2.57;;;2.40;;
12474;SDS011;6302;42.624;23.334;2023-02-01T07:36:13;3.83;;;2.43;;
12474;SDS011;6302;42.624;23.334;2023-02-01T07:38:41;4.07;;;2.33;;
12474;SDS011;6302;42.624;23.334;2023-02-01T07:41:08;7.83;;;2.40;;
12474;SDS011;6302;42.624;23.334;2023-02-01T07:43:35;3.33;;;2.80;;
12474;SDS011;6302;42.624;23.334;2023-02-01T07:46:02;2.97;;;2.77;;
12474;SDS011;6302;42.624;23.334;2023-02-01T07:48:30;3.53;;;2.80;;
12474;SDS011;6302;42.624;23.334;2023-02-01T07:50:58;2.33;;;2.20;;
12474;SDS011;6302;42.624;23.334;2023-02-01T07:53:27;2.77;;;2.57;;
12474;SDS011;6302;42.624;23.334;2023-02-01T07:55:55;2.93;;;2.67;;
12474;SDS011;6302;42.624;23.334;2023-02-01T07:58:22;2.00;;;1.90;;
12474;SDS011;6302;42.624;23.334;2023-02-01T08:00:49;2.77;;;2.57;;
12474;SDS011;6302;42.624;23.334;2023-02-01T08:03:34;2.73;;;2.43;;
12474;SDS011;6302;42.624;23.334;2023-02-01T08:06:01;2.13;;;1.97;;
12474;SDS011;6302;42.624;23.334;2023-02-01T08:08:29;2.43;;;2.23;;
12474;SDS011;6302;42.624;23.334;2023-02-01T08:10:57;2.20;;;2.10;;
12474;SDS011;6302;42.624;23.334;2023-02-01T08:13:25;2.43;;;2.20;;
12474;SDS011;6302;42.624;23.334;2023-02-01T08:15:51;5.57;;;2.80;;
12474;SDS011;6302;42.624;23.334;2023-02-01T08:18:18;2.10;;;2.00;;
12474;SDS011;6302;42.624;23.334;2023-02-01T08:20:45;3.00;;;2.10;;
12474;SDS011;6302;42.624;23.334;2023-02-01T08:23:12;3.50;;;2.60;;
12474;SDS011;6302;42.624;23.334;2023-02-01T08:25:41;3.67;;;2.40;;
12474;SDS011;6302;42.624;23.334;2023-02-01T08:28:08;3.07;;;2.53;;
12474;SDS011;6302;42.624;23.334;2023-02-01T08:30:36;3.93;;;3.17;;
12474;SDS011;6302;42.624;23.334;2023-02-01T08:33:04;7.17;;;3.67;;
12474;SDS011;6302;42.624;23.334;2023-02-01T08:35:32;10.73;;;5.33;;
12474;SDS011;6302;42.624;23.334;2023-02-01T08:38:00;5.10;;;3.47;;
12474;SDS011;6302;42.624;23.334;2023-02-01T08:40:27;6.13;;;4.33;;
12474;SDS011;6302;42.624;23.334;2023-02-01T08:42:55;4.57;;;3.50;;
12474;SDS011;6302;42.624;23.334;2023-02-01T08:45:23;10.27;;;5.93;;
12474;SDS011;6302;42.624;23.334;2023-02-01T08:47:51;4.70;;;3.97;;
12474;SDS011;6302;42.624;23.334;2023-02-01T08:50:18;5.07;;;2.90;;
12474;SDS011;6302;42.624;23.334;2023-02-01T08:52:46;14.67;;;7.40;;
12474;SDS011;6302;42.624;23.334;2023-02-01T08:55:13;5.40;;;4.03;;
12474;SDS011;6302;42.624;23.334;2023-02-01T08:57:41;6.60;;;5.47;;
12474;SDS011;6302;42.624;23.334;2023-02-01T09:00:10;3.37;;;3.07;;
12474;SDS011;6302;42.624;23.334;2023-02-01T09:02:39;6.03;;;3.27;;
12474;SDS011;6302;42.624;23.334;2023-02-01T09:05:06;3.87;;;3.57;;
12474;SDS011;6302;42.624;23.334;2023-02-01T09:07:33;5.33;;;3.83;;
12474;SDS011;6302;42.624;23.334;2023-02-01T09:10:01;4.40;;;3.07;;
12474;SDS011;6302;42.624;23.334;2023-02-01T09:12:29;3.17;;;2.83;;
12474;SDS011;6302;42.624;23.334;2023-02-01T09:14:57;2.83;;;2.63;;
12474;SDS011;6302;42.624;23.334;2023-02-01T09:17:26;2.67;;;2.47;;
12474;SDS011;6302;42.624;23.334;2023-02-01T09:19:53;3.07;;;2.77;;
12474;SDS011;6302;42.624;23.334;2023-02-01T09:22:20;4.50;;;2.30;;
12474;SDS011;6302;42.624;23.334;2023-02-01T09:24:47;3.00;;;2.70;;
12474;SDS011;6302;42.624;23.334;2023-02-01T09:27:14;2.07;;;1.97;;
12474;SDS011;6302;42.624;23.334;2023-02-01T09:29:41;1.73;;;1.63;;
12474;SDS011;6302;42.624;23.334;2023-02-01T09:32:08;4.70;;;3.00;;
12474;SDS011;6302;42.624;23.334;2023-02-01T09:34:36;4.90;;;2.83;;
12474;SDS011;6302;42.624;23.334;2023-02-01T09:37:02;3.07;;;2.57;;
12474;SDS011;6302;42.624;23.334;2023-02-01T09:39:29;3.53;;;2.63;;
12474;SDS011;6302;42.624;23.334;2023-02-01T09:41:58;3.70;;;3.10;;
12474;SDS011;6302;42.624;23.334;2023-02-01T09:44:38;4.13;;;3.73;;
12474;SDS011;6302;42.624;23.334;2023-02-01T09:47:19;7.07;;;3.57;;
12474;SDS011;6302;42.624;23.334;2023-02-01T09:49:52;3.30;;;2.93;;
12474;SDS011;6302;42.624;23.334;2023-02-01T09:52:25;2.60;;;2.40;;
12474;SDS011;6302;42.624;23.334;2023-02-01T09:54:58;4.30;;;3.07;;
12474;SDS011;6302;42.624;23.334;2023-02-01T09:57:29;3.53;;;2.97;;
12474;SDS011;6302;42.624;23.334;2023-02-01T10:00:07;4.90;;;3.00;;
12474;SDS011;6302;42.624;23.334;2023-02-01T10:02:43;3.30;;;3.00;;
12474;SDS011;6302;42.624;23.334;2023-02-01T10:05:13;3.33;;;3.03;;
12474;SDS011;6302;42.624;23.334;2023-02-01T10:07:47;3.13;;;2.50;;
12474;SDS011;6302;42.624;23.334;2023-02-01T10:10:25;3.03;;;2.60;;
12474;SDS011;6302;42.624;23.334;2023-02-01T10:13:12;2.70;;;2.50;;
12474;SDS011;6302;42.624;23.334;2023-02-01T10:15:49;3.00;;;2.53;;
12474;SDS011;6302;42.624;23.334;2023-02-01T10:18:42;4.80;;;2.67;;
12474;SDS011;6302;42.624;23.334;2023-02-01T10:21:23;2.90;;;2.70;;
12474;SDS011;6302;42.624;23.334;2023-02-01T10:24:19;2.80;;;2.50;;
12474;SDS011;6302;42.624;23.334;2023-02-01T10:26:55;3.50;;;2.90;;
12474;SDS011;6302;42.624;23.334;2023-02-01T10:29:29;3.47;;;3.17;;
12474;SDS011;6302;42.624;23.334;2023-02-01T10:32:01;3.20;;;2.90;;
12474;SDS011;6302;42.624;23.334;2023-02-01T10:34:30;3.33;;;2.40;;
12474;SDS011;6302;42.624;23.334;2023-02-01T10:37:01;3.40;;;2.37;;
12474;SDS011;6302;42.624;23.334;2023-02-01T10:39:38;3.53;;;3.33;;
12474;SDS011;6302;42.624;23.334;2023-02-01T10:42:05;2.67;;;2.20;;
12474;SDS011;6302;42.624;23.334;2023-02-01T10:44:34;2.57;;;2.37;;
12474;SDS011;6302;42.624;23.334;2023-02-01T10:47:08;2.27;;;2.17;;
12474;SDS011;6302;42.624;23.334;2023-02-01T10:49:37;2.50;;;2.30;;
12474;SDS011;6302;42.624;23.334;2023-02-01T10:52:10;4.60;;;2.43;;
12474;SDS011;6302;42.624;23.334;2023-02-01T10:54:40;2.93;;;2.00;;
12474;SDS011;6302;42.624;23.334;2023-02-01T10:57:07;3.93;;;1.90;;
12474;SDS011;6302;42.624;23.334;2023-02-01T10:59:36;2.00;;;1.83;;
12474;SDS011;6302;42.624;23.334;2023-02-01T11:02:05;2.50;;;2.23;;
12474;SDS011;6302;42.624;23.334;2023-02-01T11:04:45;3.40;;;2.27;;
12474;SDS011;6302;42.624;23.334;2023-02-01T11:07:15;2.47;;;2.27;;
12474;SDS011;6302;42.624;23.334;2023-02-01T11:09:48;2.43;;;2.23;;
12474;SDS011;6302;42.624;23.334;2023-02-01T11:12:22;3.63;;;3.20;;
12474;SDS011;6302;42.624;23.334;2023-02-01T11:14:55;3.20;;;2.40;;
12474;SDS011;6302;42.624;23.334;2023-02-01T11:17:26;3.00;;;2.80;;
12474;SDS011;6302;42.624;23.334;2023-02-01T11:19:58;3.30;;;2.53;;
12474;SDS011;6302;42.624;23.334;2023-02-01T11:22:27;2.50;;;2.27;;
12474;SDS011;6302;42.624;23.334;2023-02-01T11:24:55;2.87;;;2.60;;
12474;SDS011;6302;42.624;23.334;2023-02-01T11:27:23;5.73;;;2.93;;
12474;SDS011;6302;42.624;23.334;2023-02-01T11:29:51;4.73;;;3.33;;
12474;SDS011;6302;42.624;23.334;2023-02-01T11:32:22;2.87;;;2.20;;
12474;SDS011;6302;42.624;23.334;2023-02-01T11:34:51;3.20;;;1.80;;
12474;SDS011;6302;42.624;23.334;2023-02-01T11:37:23;2.73;;;2.53;;
12474;SDS011;6302;42.624;23.334;2023-02-01T11:39:56;4.93;;;2.30;;
12474;SDS011;6302;42.624;23.334;2023-02-01T11:42:24;4.00;;;2.20;;
12474;SDS011;6302;42.624;23.334;2023-02-01T11:45:07;2.00;;;1.90;;
12474;SDS011;6302;42.624;23.334;2023-02-01T11:47:46;2.00;;;1.90;;
12474;SDS011;6302;42.624;23.334;2023-02-01T11:50:19;2.00;;;1.90;;
12474;SDS011;6302;42.624;23.334;2023-02-01T11:53:03;1.77;;;1.67;;
12474;SDS011;6302;42.624;23.334;2023-02-01T11:55:45;1.93;;;1.83;;
12474;SDS011;6302;42.624;23.334;2023-02-01T12:01:21;2.60;;;2.40;;
12474;SDS011;6302;42.624;23.334;2023-02-01T12:04:11;2.20;;;2.10;;
12474;SDS011;6302;42.624;23.334;2023-02-01T12:07:08;2.03;;;1.93;;
12474;SDS011;6302;42.624;23.334;2023-02-01T12:09:45;2.13;;;1.93;;
12474;SDS011;6302;42.624;23.334;2023-02-01T12:12:28;2.50;;;2.33;;
12474;SDS011;6302;42.624;23.334;2023-02-01T12:15:15;2.93;;;2.33;;
12474;SDS011;6302;42.624;23.334;2023-02-01T12:17:57;3.00;;;1.80;;
12474;SDS011;6302;42.624;23.334;2023-02-01T12:20:38;2.00;;;1.90;;
12474;SDS011;6302;42.624;23.334;2023-02-01T12:23:27;4.37;;;1.90;;
12474;SDS011;6302;42.624;23.334;2023-02-01T12:26:08;1.97;;;1.87;;
12474;SDS011;6302;42.624;23.334;2023-02-01T12:29:05;3.17;;;2.87;;
12474;SDS011;6302;42.624;23.334;2023-02-01T12:32:01;5.33;;;3.33;;
12474;SDS011;6302;42.624;23.334;2023-02-01T12:34:48;2.97;;;2.77;;
12474;SDS011;6302;42.624;23.334;2023-02-01T12:37:34;22.50;;;7.23;;
12474;SDS011;6302;42.624;23.334;2023-02-01T12:40:18;8.03;;;3.63;;
12474;SDS011;6302;42.624;23.334;2023-02-01T12:42:52;27.53;;;10.60;;
12474;SDS011;6302;42.624;23.334;2023-02-01T12:45:29;6.97;;;4.90;;
12474;SDS011;6302;42.624;23.334;2023-02-01T12:48:00;7.67;;;5.13;;
12474;SDS011;6302;42.624;23.334;2023-02-01T12:50:41;2.83;;;2.07;;
12474;SDS011;6302;42.624;23.334;2023-02-01T12:53:14;3.93;;;3.30;;
12474;SDS011;6302;42.624;23.334;2023-02-01T12:55:46;2.07;;;1.87;;
12474;SDS011;6302;42.624;23.334;2023-02-01T12:58:17;2.47;;;2.27;;
12474;SDS011;6302;42.624;23.334;2023-02-01T13:00:51;2.70;;;2.23;;
12474;SDS011;6302;42.624;23.334;2023-02-01T13:03:28;12.90;;;6.90;;
12474;SDS011;6302;42.624;23.334;2023-02-01T13:06:05;8.77;;;5.07;;
12474;SDS011;6302;42.624;23.334;2023-02-01T13:08:38;4.73;;;3.40;;
12474;SDS011;6302;42.624;23.334;2023-02-01T13:11:10;2.40;;;2.10;;
12474;SDS011;6302;42.624;23.334;2023-02-01T13:13:45;2.40;;;2.20;;
12474;SDS011;6302;42.624;23.334;2023-02-01T13:16:23;6.80;;;4.43;;
12474;SDS011;6302;42.624;23.334;2023-02-01T13:18:56;5.03;;;3.17;;
12474;SDS011;6302;42.624;23.334;2023-02-01T13:21:31;3.37;;;2.60;;
12474;SDS011;6302;42.624;23.334;2023-02-01T13:24:03;3.37;;;2.73;;
12474;SDS011;6302;42.624;23.334;2023-02-01T13:26:30;6.23;;;4.53;;
12474;SDS011;6302;42.624;23.334;2023-02-01T13:28:57;4.50;;;3.87;;
12474;SDS011;6302;42.624;23.334;2023-02-01T13:34:37;2.53;;;2.10;;
12474;SDS011;6302;42.624;23.334;2023-02-01T13:37:26;2.83;;;2.53;;
12474;SDS011;6302;42.624;23.334;2023-02-01T13:40:16;2.17;;;2.00;;
12474;SDS011;6302;42.624;23.334;2023-02-01T13:42:52;2.57;;;2.37;;
12474;SDS011;6302;42.624;23.334;2023-02-01T13:45:22;4.03;;;3.20;;
12474;SDS011;6302;42.624;23.334;2023-02-01T13:47:53;3.73;;;2.47;;
12474;SDS011;6302;42.624;23.334;2023-02-01T13:50:24;3.27;;;2.40;;
12474;SDS011;6302;42.624;23.334;2023-02-01T13:52:55;5.40;;;3.87;;
12474;SDS011;6302;42.624;23.334;2023-02-01T13:55:29;2.50;;;2.30;;
12474;SDS011;6302;42.624;23.334;2023-02-01T13:58:03;5.17;;;3.90;;
12474;SDS011;6302;42.624;23.334;2023-02-01T14:00:33;6.97;;;4.53;;
12474;SDS011;6302;42.624;23.334;2023-02-01T14:03:09;11.57;;;6.47;;
12474;SDS011;6302;42.624;23.334;2023-02-01T14:06:03;5.57;;;3.90;;
12474;SDS011;6302;42.624;23.334;2023-02-01T14:08:45;14.67;;;6.73;;
12474;SDS011;6302;42.624;23.334;2023-02-01T14:11:36;9.47;;;4.77;;
12474;SDS011;6302;42.624;23.334;2023-02-01T14:23:31;7.57;;;3.73;;
12474;SDS011;6302;42.624;23.334;2023-02-01T14:28:53;7.67;;;5.27;;
12474;SDS011;6302;42.624;23.334;2023-02-01T14:31:32;13.27;;;6.80;;
12474;SDS011;6302;42.624;23.334;2023-02-01T14:34:11;23.40;;;10.33;;
12474;SDS011;6302;42.624;23.334;2023-02-01T14:36:44;25.27;;;10.80;;
12474;SDS011;6302;42.624;23.334;2023-02-01T14:39:30;6.57;;;4.33;;
12474;SDS011;6302;42.624;23.334;2023-02-01T14:42:04;15.30;;;6.90;;
12474;SDS011;6302;42.624;23.334;2023-02-01T14:44:41;17.30;;;7.83;;
12474;SDS011;6302;42.624;23.334;2023-02-01T14:50:03;19.13;;;11.37;;
12474;SDS011;6302;42.624;23.334;2023-02-01T14:52:40;11.13;;;6.07;;
12474;SDS011;6302;42.624;23.334;2023-02-01T14:55:13;15.37;;;8.33;;
12474;SDS011;6302;42.624;23.334;2023-02-01T14:57:45;3.93;;;3.50;;
12474;SDS011;6302;42.624;23.334;2023-02-01T15:00:18;13.37;;;7.70;;
12474;SDS011;6302;42.624;23.334;2023-02-01T15:02:47;13.07;;;6.00;;
12474;SDS011;6302;42.624;23.334;2023-02-01T15:05:26;5.90;;;4.07;;
12474;SDS011;6302;42.624;23.334;2023-02-01T15:07:57;10.57;;;5.40;;
12474;SDS011;6302;42.624;23.334;2023-02-01T15:10:39;14.23;;;9.27;;
12474;SDS011;6302;42.624;23.334;2023-02-01T15:13:20;12.17;;;7.87;;
12474;SDS011;6302;42.624;23.334;2023-02-01T15:16:04;10.30;;;6.33;;
12474;SDS011;6302;42.624;23.334;2023-02-01T15:18:35;8.60;;;5.13;;
12474;SDS011;6302;42.624;23.334;2023-02-01T15:21:03;13.13;;;7.73;;
12474;SDS011;6302;42.624;23.334;2023-02-01T15:23:31;14.50;;;8.40;;
12474;SDS011;6302;42.624;23.334;2023-02-01T15:26:00;19.03;;;10.00;;
12474;SDS011;6302;42.624;23.334;2023-02-01T15:28:27;17.23;;;10.13;;
12474;SDS011;6302;42.624;23.334;2023-02-01T15:30:55;32.37;;;17.60;;
12474;SDS011;6302;42.624;23.334;2023-02-01T15:33:24;26.50;;;13.13;;
12474;SDS011;6302;42.624;23.334;2023-02-01T15:35:52;48.50;;;19.97;;